Kronborg, Nebraska
Current Conditions -  °F | °C
As of 1:35 PM on Wednesday 17 Dec 2014 (Local Time) from KAUH Reporting Station
Overcast Overcast  
Wind Chill: 19°   Ceiling: 1300
Heat Index: 25°   Visibility: 10mi
Dew Point: 21°   Wind: 6mph
Humidity: 83%   Direction: 130°SE
Pressure: 30.2"   Gusts: NA
Location:  41.0075°N, 98.0042°W
Report Text: KAUH 171935Z AUTO 13005KT 10SM OVC013 M04/M06 A3020 RMK AO2 T10371062
Loading
Personal Weather Stations






























Interactive Weather Map New forecast layout! Learn more

10-Day Weather Forecast

Advertisements
Track Severe Weather on mobile